sensor_id;sensor_type;location;lat;lon;timestamp;temperature;humidity
77056;SHT30;67471;44.918;8.614;2023-05-29T00:01:56;22.25;59.42
77056;SHT30;67471;44.918;8.614;2023-05-29T00:04:59;22.19;60.05
77056;SHT30;67471;44.918;8.614;2023-05-29T00:08:06;22.22;60.38
77056;SHT30;67471;44.918;8.614;2023-05-29T00:11:10;22.20;60.79
77056;SHT30;67471;44.918;8.614;2023-05-29T00:14:13;22.20;60.87
77056;SHT30;67471;44.918;8.614;2023-05-29T00:17:18;22.16;60.92
77056;SHT30;67471;44.918;8.614;2023-05-29T00:20:22;22.06;60.87
77056;SHT30;67471;44.918;8.614;2023-05-29T00:23:25;22.05;60.95
77056;SHT30;67471;44.918;8.614;2023-05-29T00:26:29;22.04;60.75
77056;SHT30;67471;44.918;8.614;2023-05-29T00:29:34;21.97;61.33
77056;SHT30;67471;44.918;8.614;2023-05-29T00:32:39;21.97;61.85
77056;SHT30;67471;44.918;8.614;2023-05-29T00:35:43;21.89;62.35
77056;SHT30;67471;44.918;8.614;2023-05-29T00:38:47;21.91;62.33
77056;SHT30;67471;44.918;8.614;2023-05-29T00:41:50;21.77;63.00
77056;SHT30;67471;44.918;8.614;2023-05-29T00:44:54;21.77;63.31
77056;SHT30;67471;44.918;8.614;2023-05-29T00:47:58;21.61;63.76
77056;SHT30;67471;44.918;8.614;2023-05-29T00:51:02;21.53;64.19
77056;SHT30;67471;44.918;8.614;2023-05-29T00:54:07;21.53;64.05
77056;SHT30;67471;44.918;8.614;2023-05-29T00:57:12;21.41;64.38
77056;SHT30;67471;44.918;8.614;2023-05-29T01:00:16;21.44;64.24
77056;SHT30;67471;44.918;8.614;2023-05-29T01:03:21;21.47;63.98
77056;SHT30;67471;44.918;8.614;2023-05-29T01:06:26;21.43;64.13
77056;SHT30;67471;44.918;8.614;2023-05-29T01:09:31;21.30;64.16
77056;SHT30;67471;44.918;8.614;2023-05-29T01:12:43;21.33;64.06
77056;SHT30;67471;44.918;8.614;2023-05-29T01:15:59;21.28;64.53
77056;SHT30;67471;44.918;8.614;2023-05-29T01:22:40;21.17;65.27
77056;SHT30;67471;44.918;8.614;2023-05-29T01:29:06;20.95;65.85
77056;SHT30;67471;44.918;8.614;2023-05-29T01:32:11;20.89;65.80
77056;SHT30;67471;44.918;8.614;2023-05-29T01:35:15;20.75;66.23
77056;SHT30;67471;44.918;8.614;2023-05-29T01:38:18;20.83;65.96
77056;SHT30;67471;44.918;8.614;2023-05-29T01:41:23;20.75;65.83
77056;SHT30;67471;44.918;8.614;2023-05-29T01:44:28;20.80;65.72
77056;SHT30;67471;44.918;8.614;2023-05-29T01:47:33;20.83;65.34
77056;SHT30;67471;44.918;8.614;2023-05-29T01:50:37;20.88;65.09
77056;SHT30;67471;44.918;8.614;2023-05-29T01:53:42;20.88;65.33
77056;SHT30;67471;44.918;8.614;2023-05-29T01:56:47;20.85;65.39
77056;SHT30;67471;44.918;8.614;2023-05-29T01:59:52;20.95;65.07
77056;SHT30;67471;44.918;8.614;2023-05-29T02:02:55;20.89;65.44
77056;SHT30;67471;44.918;8.614;2023-05-29T02:06:00;20.90;65.42
77056;SHT30;67471;44.918;8.614;2023-05-29T02:09:04;20.86;66.01
77056;SHT30;67471;44.918;8.614;2023-05-29T02:12:07;20.71;66.75
77056;SHT30;67471;44.918;8.614;2023-05-29T02:15:11;20.64;66.86
77056;SHT30;67471;44.918;8.614;2023-05-29T02:18:15;20.68;67.07
77056;SHT30;67471;44.918;8.614;2023-05-29T02:21:22;20.66;67.28
77056;SHT30;67471;44.918;8.614;2023-05-29T02:24:26;20.68;67.60
77056;SHT30;67471;44.918;8.614;2023-05-29T02:27:29;20.66;67.73
77056;SHT30;67471;44.918;8.614;2023-05-29T02:30:34;20.52;68.23
77056;SHT30;67471;44.918;8.614;2023-05-29T02:33:38;20.52;68.09
77056;SHT30;67471;44.918;8.614;2023-05-29T02:36:42;20.49;68.15
77056;SHT30;67471;44.918;8.614;2023-05-29T02:39:46;20.44;68.37
77056;SHT30;67471;44.918;8.614;2023-05-29T02:42:50;20.27;69.02
77056;SHT30;67471;44.918;8.614;2023-05-29T02:45:54;20.32;68.61
77056;SHT30;67471;44.918;8.614;2023-05-29T02:48:59;20.28;68.51
77056;SHT30;67471;44.918;8.614;2023-05-29T02:52:02;20.32;68.40
77056;SHT30;67471;44.918;8.614;2023-05-29T02:55:06;20.24;68.38
77056;SHT30;67471;44.918;8.614;2023-05-29T02:58:10;20.31;68.41
77056;SHT30;67471;44.918;8.614;2023-05-29T03:01:15;20.27;68.79
77056;SHT30;67471;44.918;8.614;2023-05-29T03:04:18;20.27;68.77
77056;SHT30;67471;44.918;8.614;2023-05-29T03:07:22;20.03;69.35
77056;SHT30;67471;44.918;8.614;2023-05-29T03:10:26;20.08;68.99
77056;SHT30;67471;44.918;8.614;2023-05-29T03:13:30;20.07;68.93
77056;SHT30;67471;44.918;8.614;2023-05-29T03:16:41;19.91;69.11
77056;SHT30;67471;44.918;8.614;2023-05-29T03:19:45;19.96;69.00
77056;SHT30;67471;44.918;8.614;2023-05-29T03:22:49;19.86;69.20
77056;SHT30;67471;44.918;8.614;2023-05-29T03:25:53;19.96;69.24
77056;SHT30;67471;44.918;8.614;2023-05-29T03:28:57;19.88;69.31
77056;SHT30;67471;44.918;8.614;2023-05-29T03:32:01;19.81;69.37
77056;SHT30;67471;44.918;8.614;2023-05-29T03:35:08;19.74;69.65
77056;SHT30;67471;44.918;8.614;2023-05-29T03:38:12;19.76;69.56
77056;SHT30;67471;44.918;8.614;2023-05-29T03:41:16;19.76;69.59
77056;SHT30;67471;44.918;8.614;2023-05-29T03:44:19;19.73;69.44
77056;SHT30;67471;44.918;8.614;2023-05-29T03:47:23;19.83;69.01
77056;SHT30;67471;44.918;8.614;2023-05-29T03:50:28;19.86;68.88
77056;SHT30;67471;44.918;8.614;2023-05-29T03:53:32;19.88;68.75
77056;SHT30;67471;44.918;8.614;2023-05-29T03:56:36;19.88;68.55
77056;SHT30;67471;44.918;8.614;2023-05-29T03:59:39;19.94;68.31
77056;SHT30;67471;44.918;8.614;2023-05-29T04:02:44;20.00;68.21
77056;SHT30;67471;44.918;8.614;2023-05-29T04:05:48;20.01;68.05
77056;SHT30;67471;44.918;8.614;2023-05-29T04:08:52;20.04;68.02
77056;SHT30;67471;44.918;8.614;2023-05-29T04:11:55;20.03;68.10
77056;SHT30;67471;44.918;8.614;2023-05-29T04:14:59;20.00;68.08
77056;SHT30;67471;44.918;8.614;2023-05-29T04:18:03;20.01;68.19
77056;SHT30;67471;44.918;8.614;2023-05-29T04:21:06;19.96;68.38
77056;SHT30;67471;44.918;8.614;2023-05-29T04:24:10;19.84;68.98
77056;SHT30;67471;44.918;8.614;2023-05-29T04:27:14;19.88;68.96
77056;SHT30;67471;44.918;8.614;2023-05-29T04:30:18;19.86;69.22
77056;SHT30;67471;44.918;8.614;2023-05-29T04:33:25;19.88;69.09
77056;SHT30;67471;44.918;8.614;2023-05-29T04:36:29;19.87;69.08
77056;SHT30;67471;44.918;8.614;2023-05-29T04:39:45;19.96;68.85
77056;SHT30;67471;44.918;8.614;2023-05-29T04:42:54;19.96;69.00
77056;SHT30;67471;44.918;8.614;2023-05-29T04:45:59;19.88;69.27
77056;SHT30;67471;44.918;8.614;2023-05-29T04:49:04;19.94;69.21
77056;SHT30;67471;44.918;8.614;2023-05-29T04:52:08;19.91;69.41
77056;SHT30;67471;44.918;8.614;2023-05-29T04:55:12;19.86;69.59
77056;SHT30;67471;44.918;8.614;2023-05-29T04:58:16;19.90;69.52
77056;SHT30;67471;44.918;8.614;2023-05-29T05:01:19;19.84;69.66
77056;SHT30;67471;44.918;8.614;2023-05-29T05:04:23;19.96;69.16
77056;SHT30;67471;44.918;8.614;2023-05-29T05:07:27;20.13;68.78
77056;SHT30;67471;44.918;8.614;2023-05-29T05:10:30;20.11;68.60
77056;SHT30;67471;44.918;8.614;2023-05-29T05:13:34;20.11;68.44
77056;SHT30;67471;44.918;8.614;2023-05-29T05:16:38;20.14;68.78
77056;SHT30;67471;44.918;8.614;2023-05-29T05:19:42;20.20;68.35
77056;SHT30;67471;44.918;8.614;2023-05-29T05:22:45;20.28;68.32
77056;SHT30;67471;44.918;8.614;2023-05-29T05:25:49;20.28;68.38
77056;SHT30;67471;44.918;8.614;2023-05-29T05:28:53;20.42;68.14
77056;SHT30;67471;44.918;8.614;2023-05-29T05:31:57;20.42;68.09
77056;SHT30;67471;44.918;8.614;2023-05-29T05:35:01;20.47;67.77
77056;SHT30;67471;44.918;8.614;2023-05-29T05:38:05;20.45;67.75
77056;SHT30;67471;44.918;8.614;2023-05-29T05:41:09;20.55;67.36
77056;SHT30;67471;44.918;8.614;2023-05-29T05:44:14;20.52;67.43
77056;SHT30;67471;44.918;8.614;2023-05-29T05:47:23;20.59;67.26
77056;SHT30;67471;44.918;8.614;2023-05-29T05:50:27;20.65;67.16
77056;SHT30;67471;44.918;8.614;2023-05-29T05:53:31;20.68;67.05
77056;SHT30;67471;44.918;8.614;2023-05-29T05:56:35;20.76;66.58
77056;SHT30;67471;44.918;8.614;2023-05-29T05:59:39;20.73;66.80
77056;SHT30;67471;44.918;8.614;2023-05-29T06:02:44;20.92;66.08
77056;SHT30;67471;44.918;8.614;2023-05-29T06:05:52;21.06;65.73
77056;SHT30;67471;44.918;8.614;2023-05-29T06:08:58;21.22;65.22
77056;SHT30;67471;44.918;8.614;2023-05-29T06:12:02;21.19;65.14
77056;SHT30;67471;44.918;8.614;2023-05-29T06:15:06;21.20;65.03
77056;SHT30;67471;44.918;8.614;2023-05-29T06:18:11;21.09;64.95
77056;SHT30;67471;44.918;8.614;2023-05-29T06:21:17;21.11;65.31
77056;SHT30;67471;44.918;8.614;2023-05-29T06:24:26;21.09;65.39
77056;SHT30;67471;44.918;8.614;2023-05-29T06:27:32;21.14;65.31
77056;SHT30;67471;44.918;8.614;2023-05-29T06:30:35;21.11;65.43
77056;SHT30;67471;44.918;8.614;2023-05-29T06:33:44;21.13;65.13
77056;SHT30;67471;44.918;8.614;2023-05-29T06:36:47;21.00;64.84
77056;SHT30;67471;44.918;8.614;2023-05-29T06:39:51;21.03;65.08
77056;SHT30;67471;44.918;8.614;2023-05-29T06:42:54;21.14;64.67
77056;SHT30;67471;44.918;8.614;2023-05-29T06:46:12;21.28;64.46
77056;SHT30;67471;44.918;8.614;2023-05-29T06:49:16;21.41;64.21
77056;SHT30;67471;44.918;8.614;2023-05-29T06:52:20;21.57;63.98
77056;SHT30;67471;44.918;8.614;2023-05-29T06:55:43;21.67;63.64
77056;SHT30;67471;44.918;8.614;2023-05-29T06:58:47;21.75;63.40
77056;SHT30;67471;44.918;8.614;2023-05-29T07:01:52;21.74;63.04
77056;SHT30;67471;44.918;8.614;2023-05-29T07:04:58;21.75;62.80
77056;SHT30;67471;44.918;8.614;2023-05-29T07:08:03;22.05;62.11
77056;SHT30;67471;44.918;8.614;2023-05-29T07:11:07;22.71;60.40
77056;SHT30;67471;44.918;8.614;2023-05-29T07:14:11;23.56;58.56
77056;SHT30;67471;44.918;8.614;2023-05-29T07:17:15;24.28;56.55
77056;SHT30;67471;44.918;8.614;2023-05-29T07:20:19;24.94;54.65
77056;SHT30;67471;44.918;8.614;2023-05-29T07:23:25;25.60;52.72
77056;SHT30;67471;44.918;8.614;2023-05-29T07:26:30;26.14;51.51
77056;SHT30;67471;44.918;8.614;2023-05-29T07:29:34;26.53;50.55
77056;SHT30;67471;44.918;8.614;2023-05-29T07:32:38;27.14;48.80
77056;SHT30;67471;44.918;8.614;2023-05-29T07:35:42;27.23;48.83
77056;SHT30;67471;44.918;8.614;2023-05-29T07:38:47;26.52;50.18
77056;SHT30;67471;44.918;8.614;2023-05-29T07:41:52;26.41;50.17
77056;SHT30;67471;44.918;8.614;2023-05-29T07:44:56;26.49;50.52
77056;SHT30;67471;44.918;8.614;2023-05-29T07:48:00;27.43;48.78
77056;SHT30;67471;44.918;8.614;2023-05-29T07:51:05;28.01;47.63
77056;SHT30;67471;44.918;8.614;2023-05-29T07:54:13;28.24;46.53
77056;SHT30;67471;44.918;8.614;2023-05-29T07:57:21;28.02;47.45
77056;SHT30;67471;44.918;8.614;2023-05-29T08:00:25;27.98;47.23
77056;SHT30;67471;44.918;8.614;2023-05-29T08:03:30;27.93;47.59
77056;SHT30;67471;44.918;8.614;2023-05-29T08:07:02;27.85;47.85
77056;SHT30;67471;44.918;8.614;2023-05-29T08:10:09;28.13;47.75
77056;SHT30;67471;44.918;8.614;2023-05-29T08:13:12;27.58;49.46
77056;SHT30;67471;44.918;8.614;2023-05-29T08:16:17;27.11;49.72
77056;SHT30;67471;44.918;8.614;2023-05-29T08:19:21;26.99;50.30
77056;SHT30;67471;44.918;8.614;2023-05-29T08:22:28;26.63;51.69
77056;SHT30;67471;44.918;8.614;2023-05-29T08:25:33;26.63;52.00
77056;SHT30;67471;44.918;8.614;2023-05-29T08:28:36;27.52;49.29
77056;SHT30;67471;44.918;8.614;2023-05-29T08:31:40;27.77;49.11
77056;SHT30;67471;44.918;8.614;2023-05-29T08:34:44;27.69;46.88
77056;SHT30;67471;44.918;8.614;2023-05-29T08:37:49;27.80;46.53
77056;SHT30;67471;44.918;8.614;2023-05-29T08:40:54;27.91;46.91
77056;SHT30;67471;44.918;8.614;2023-05-29T08:43:59;28.27;46.59
77056;SHT30;67471;44.918;8.614;2023-05-29T08:47:07;28.30;46.02
77056;SHT30;67471;44.918;8.614;2023-05-29T08:50:11;28.35;46.36
77056;SHT30;67471;44.918;8.614;2023-05-29T08:53:17;28.63;45.00
77056;SHT30;67471;44.918;8.614;2023-05-29T08:56:22;29.10;44.48
77056;SHT30;67471;44.918;8.614;2023-05-29T08:59:27;29.26;44.32
77056;SHT30;67471;44.918;8.614;2023-05-29T09:02:32;29.29;44.25
77056;SHT30;67471;44.918;8.614;2023-05-29T09:05:38;29.25;44.85
77056;SHT30;67471;44.918;8.614;2023-05-29T09:08:43;29.14;44.92
77056;SHT30;67471;44.918;8.614;2023-05-29T09:11:47;29.38;44.68
77056;SHT30;67471;44.918;8.614;2023-05-29T09:14:51;29.14;45.15
77056;SHT30;67471;44.918;8.614;2023-05-29T09:17:57;29.26;44.52
77056;SHT30;67471;44.918;8.614;2023-05-29T09:21:06;29.56;44.22
77056;SHT30;67471;44.918;8.614;2023-05-29T09:24:13;29.59;44.53
77056;SHT30;67471;44.918;8.614;2023-05-29T09:27:18;29.77;43.80
77056;SHT30;67471;44.918;8.614;2023-05-29T09:30:32;30.01;43.64
77056;SHT30;67471;44.918;8.614;2023-05-29T09:33:55;30.06;43.51
77056;SHT30;67471;44.918;8.614;2023-05-29T09:37:03;30.00;43.66
77056;SHT30;67471;44.918;8.614;2023-05-29T09:40:11;29.97;43.82
77056;SHT30;67471;44.918;8.614;2023-05-29T09:43:16;30.03;43.09
77056;SHT30;67471;44.918;8.614;2023-05-29T09:46:20;30.07;43.47
77056;SHT30;67471;44.918;8.614;2023-05-29T09:49:25;30.25;42.82
77056;SHT30;67471;44.918;8.614;2023-05-29T09:52:29;30.03;42.71
77056;SHT30;67471;44.918;8.614;2023-05-29T09:55:35;29.91;43.05
77056;SHT30;67471;44.918;8.614;2023-05-29T09:58:40;30.01;43.26
77056;SHT30;67471;44.918;8.614;2023-05-29T10:02:02;29.83;43.58
77056;SHT30;67471;44.918;8.614;2023-05-29T10:05:07;29.32;44.62
77056;SHT30;67471;44.918;8.614;2023-05-29T10:08:15;29.41;44.39
77056;SHT30;67471;44.918;8.614;2023-05-29T10:11:21;29.31;44.40
77056;SHT30;67471;44.918;8.614;2023-05-29T10:14:33;29.08;44.77
77056;SHT30;67471;44.918;8.614;2023-05-29T10:17:38;28.95;44.91
77056;SHT30;67471;44.918;8.614;2023-05-29T10:20:44;28.68;45.13
77056;SHT30;67471;44.918;8.614;2023-05-29T10:23:50;28.63;44.79
77056;SHT30;67471;44.918;8.614;2023-05-29T10:26:54;28.70;44.78
77056;SHT30;67471;44.918;8.614;2023-05-29T10:30:04;28.60;45.26
77056;SHT30;67471;44.918;8.614;2023-05-29T10:36:35;28.75;45.89
77056;SHT30;67471;44.918;8.614;2023-05-29T10:39:41;28.80;46.48
77056;SHT30;67471;44.918;8.614;2023-05-29T10:42:49;29.21;46.07
77056;SHT30;67471;44.918;8.614;2023-05-29T10:45:55;29.28;45.63
77056;SHT30;67471;44.918;8.614;2023-05-29T10:48:59;29.38;45.86
77056;SHT30;67471;44.918;8.614;2023-05-29T10:52:04;29.67;45.72
77056;SHT30;67471;44.918;8.614;2023-05-29T10:55:10;29.96;45.16
77056;SHT30;67471;44.918;8.614;2023-05-29T10:58:23;30.41;44.38
77056;SHT30;67471;44.918;8.614;2023-05-29T11:01:29;30.52;44.03
77056;SHT30;67471;44.918;8.614;2023-05-29T11:04:33;30.55;43.71
77056;SHT30;67471;44.918;8.614;2023-05-29T11:07:57;30.42;43.93
77056;SHT30;67471;44.918;8.614;2023-05-29T11:11:01;30.25;43.95
77056;SHT30;67471;44.918;8.614;2023-05-29T11:14:06;30.11;44.78
77056;SHT30;67471;44.918;8.614;2023-05-29T11:17:28;30.30;44.34
77056;SHT30;67471;44.918;8.614;2023-05-29T11:20:36;30.42;44.08
77056;SHT30;67471;44.918;8.614;2023-05-29T11:23:41;30.41;43.81
77056;SHT30;67471;44.918;8.614;2023-05-29T11:26:46;30.42;43.50
77056;SHT30;67471;44.918;8.614;2023-05-29T11:29:50;30.42;43.75
77056;SHT30;67471;44.918;8.614;2023-05-29T11:33:01;30.23;44.61
77056;SHT30;67471;44.918;8.614;2023-05-29T11:36:05;30.24;44.85
77056;SHT30;67471;44.918;8.614;2023-05-29T11:39:10;30.06;45.61
77056;SHT30;67471;44.918;8.614;2023-05-29T11:42:15;30.16;45.72
77056;SHT30;67471;44.918;8.614;2023-05-29T11:45:20;29.69;46.25
77056;SHT30;67471;44.918;8.614;2023-05-29T11:48:24;29.73;45.94
77056;SHT30;67471;44.918;8.614;2023-05-29T11:51:28;29.89;45.40
77056;SHT30;67471;44.918;8.614;2023-05-29T11:54:33;29.86;44.91
77056;SHT30;67471;44.918;8.614;2023-05-29T11:57:37;29.80;44.74
77056;SHT30;67471;44.918;8.614;2023-05-29T12:00:41;29.73;44.30
77056;SHT30;67471;44.918;8.614;2023-05-29T12:03:47;29.76;44.75
77056;SHT30;67471;44.918;8.614;2023-05-29T12:06:50;29.94;45.19
77056;SHT30;67471;44.918;8.614;2023-05-29T12:09:54;29.59;45.67
77056;SHT30;67471;44.918;8.614;2023-05-29T12:13:00;29.48;45.41
77056;SHT30;67471;44.918;8.614;2023-05-29T12:16:05;29.62;44.26
77056;SHT30;67471;44.918;8.614;2023-05-29T12:19:10;29.73;44.22
77056;SHT30;67471;44.918;8.614;2023-05-29T12:22:13;29.77;44.58
77056;SHT30;67471;44.918;8.614;2023-05-29T12:25:20;29.83;44.21
77056;SHT30;67471;44.918;8.614;2023-05-29T12:28:24;29.59;43.82
77056;SHT30;67471;44.918;8.614;2023-05-29T12:31:29;29.82;43.97
77056;SHT30;67471;44.918;8.614;2023-05-29T12:34:34;30.03;43.55
77056;SHT30;67471;44.918;8.614;2023-05-29T12:40:56;30.07;41.56
77056;SHT30;67471;44.918;8.614;2023-05-29T12:44:03;30.11;40.62
77056;SHT30;67471;44.918;8.614;2023-05-29T12:47:07;30.11;40.08
77056;SHT30;67471;44.918;8.614;2023-05-29T12:50:28;30.28;40.50
77056;SHT30;67471;44.918;8.614;2023-05-29T12:53:32;30.28;41.91
77056;SHT30;67471;44.918;8.614;2023-05-29T12:56:35;30.47;40.80
77056;SHT30;67471;44.918;8.614;2023-05-29T12:59:39;30.49;40.54
77056;SHT30;67471;44.918;8.614;2023-05-29T13:02:44;30.48;40.25
77056;SHT30;67471;44.918;8.614;2023-05-29T13:05:50;30.34;40.67
77056;SHT30;67471;44.918;8.614;2023-05-29T13:08:53;30.25;41.02
77056;SHT30;67471;44.918;8.614;2023-05-29T13:11:57;30.41;40.96
77056;SHT30;67471;44.918;8.614;2023-05-29T13:15:02;30.32;40.82
77056;SHT30;67471;44.918;8.614;2023-05-29T13:18:06;30.11;41.14
77056;SHT30;67471;44.918;8.614;2023-05-29T13:21:10;30.18;41.15
77056;SHT30;67471;44.918;8.614;2023-05-29T13:24:14;30.23;41.16
77056;SHT30;67471;44.918;8.614;2023-05-29T13:27:18;30.20;41.02
77056;SHT30;67471;44.918;8.614;2023-05-29T13:30:22;29.53;41.50
77056;SHT30;67471;44.918;8.614;2023-05-29T13:33:26;29.87;41.42
77056;SHT30;67471;44.918;8.614;2023-05-29T13:36:29;29.58;41.92
77056;SHT30;67471;44.918;8.614;2023-05-29T13:39:33;29.87;41.54
77056;SHT30;67471;44.918;8.614;2023-05-29T13:42:38;30.14;41.01
77056;SHT30;67471;44.918;8.614;2023-05-29T13:45:42;30.38;40.27
77056;SHT30;67471;44.918;8.614;2023-05-29T13:48:46;30.28;40.06
77056;SHT30;67471;44.918;8.614;2023-05-29T13:51:50;30.30;40.07
77056;SHT30;67471;44.918;8.614;2023-05-29T13:54:54;30.20;40.62
77056;SHT30;67471;44.918;8.614;2023-05-29T13:57:57;30.34;40.82
77056;SHT30;67471;44.918;8.614;2023-05-29T14:01:01;30.21;40.51
77056;SHT30;67471;44.918;8.614;2023-05-29T14:04:05;30.31;40.60
77056;SHT30;67471;44.918;8.614;2023-05-29T14:07:09;30.10;40.90
77056;SHT30;67471;44.918;8.614;2023-05-29T14:10:13;29.91;41.00
77056;SHT30;67471;44.918;8.614;2023-05-29T14:13:16;30.16;40.21
77056;SHT30;67471;44.918;8.614;2023-05-29T14:16:20;30.13;40.19
77056;SHT30;67471;44.918;8.614;2023-05-29T14:19:23;30.04;40.44
77056;SHT30;67471;44.918;8.614;2023-05-29T14:22:27;30.10;40.61
77056;SHT30;67471;44.918;8.614;2023-05-29T14:25:31;30.25;40.74
77056;SHT30;67471;44.918;8.614;2023-05-29T14:28:35;30.21;40.99
77056;SHT30;67471;44.918;8.614;2023-05-29T14:31:41;30.24;40.95
77056;SHT30;67471;44.918;8.614;2023-05-29T14:34:44;30.41;40.84
77056;SHT30;67471;44.918;8.614;2023-05-29T14:37:48;30.51;40.51
77056;SHT30;67471;44.918;8.614;2023-05-29T14:40:52;29.96;41.35
77056;SHT30;67471;44.918;8.614;2023-05-29T14:43:56;29.55;42.16
77056;SHT30;67471;44.918;8.614;2023-05-29T14:47:02;29.62;42.26
77056;SHT30;67471;44.918;8.614;2023-05-29T14:50:06;29.77;42.03
77056;SHT30;67471;44.918;8.614;2023-05-29T14:53:11;29.99;41.76
77056;SHT30;67471;44.918;8.614;2023-05-29T14:56:14;30.03;41.55
77056;SHT30;67471;44.918;8.614;2023-05-29T14:59:18;29.67;41.84
77056;SHT30;67471;44.918;8.614;2023-05-29T15:02:23;29.36;42.64
77056;SHT30;67471;44.918;8.614;2023-05-29T15:05:26;29.66;42.67
77056;SHT30;67471;44.918;8.614;2023-05-29T15:08:30;29.94;41.88
77056;SHT30;67471;44.918;8.614;2023-05-29T15:11:37;29.43;42.04
77056;SHT30;67471;44.918;8.614;2023-05-29T15:14:41;29.48;42.23
77056;SHT30;67471;44.918;8.614;2023-05-29T15:17:45;29.31;42.55
77056;SHT30;67471;44.918;8.614;2023-05-29T15:20:51;29.31;42.67
77056;SHT30;67471;44.918;8.614;2023-05-29T15:23:56;29.55;42.63
77056;SHT30;67471;44.918;8.614;2023-05-29T15:27:00;29.72;42.42
77056;SHT30;67471;44.918;8.614;2023-05-29T15:30:13;29.63;42.40
77056;SHT30;67471;44.918;8.614;2023-05-29T15:33:18;29.69;42.37
77056;SHT30;67471;44.918;8.614;2023-05-29T15:36:22;29.80;41.92
77056;SHT30;67471;44.918;8.614;2023-05-29T15:39:26;29.86;41.23
77056;SHT30;67471;44.918;8.614;2023-05-29T15:42:30;29.70;41.52
77056;SHT30;67471;44.918;8.614;2023-05-29T15:45:33;29.83;41.40
77056;SHT30;67471;44.918;8.614;2023-05-29T15:48:37;29.74;41.43
77056;SHT30;67471;44.918;8.614;2023-05-29T15:51:41;29.35;41.35
77056;SHT30;67471;44.918;8.614;2023-05-29T15:54:46;28.65;42.56
77056;SHT30;67471;44.918;8.614;2023-05-29T15:57:50;28.14;43.07
77056;SHT30;67471;44.918;8.614;2023-05-29T16:00:54;28.29;42.61
77056;SHT30;67471;44.918;8.614;2023-05-29T16:03:58;28.49;42.33
77056;SHT30;67471;44.918;8.614;2023-05-29T16:07:02;28.75;41.94
77056;SHT30;67471;44.918;8.614;2023-05-29T16:10:06;28.97;41.35
77056;SHT30;67471;44.918;8.614;2023-05-29T16:13:10;29.22;41.70
77056;SHT30;67471;44.918;8.614;2023-05-29T16:16:14;29.25;41.36
77056;SHT30;67471;44.918;8.614;2023-05-29T16:19:20;29.38;41.16
77056;SHT30;67471;44.918;8.614;2023-05-29T16:22:24;29.26;41.36
77056;SHT30;67471;44.918;8.614;2023-05-29T16:25:28;29.21;41.20
77056;SHT30;67471;44.918;8.614;2023-05-29T16:28:32;29.25;41.02
77056;SHT30;67471;44.918;8.614;2023-05-29T16:31:36;29.22;41.54
77056;SHT30;67471;44.918;8.614;2023-05-29T16:34:40;29.23;41.45
77056;SHT30;67471;44.918;8.614;2023-05-29T16:37:45;29.10;41.90
77056;SHT30;67471;44.918;8.614;2023-05-29T16:40:48;28.87;42.52
77056;SHT30;67471;44.918;8.614;2023-05-29T16:43:52;28.92;42.35
77056;SHT30;67471;44.918;8.614;2023-05-29T16:46:56;28.88;42.48
77056;SHT30;67471;44.918;8.614;2023-05-29T16:50:00;28.75;42.12
77056;SHT30;67471;44.918;8.614;2023-05-29T16:53:04;28.52;42.29
77056;SHT30;67471;44.918;8.614;2023-05-29T16:56:09;27.80;43.86
77056;SHT30;67471;44.918;8.614;2023-05-29T16:59:13;27.72;44.21
77056;SHT30;67471;44.918;8.614;2023-05-29T17:02:17;27.89;43.95
77056;SHT30;67471;44.918;8.614;2023-05-29T17:05:22;28.06;43.60
77056;SHT30;67471;44.918;8.614;2023-05-29T17:08:26;28.14;43.58
77056;SHT30;67471;44.918;8.614;2023-05-29T17:11:30;28.22;43.37
77056;SHT30;67471;44.918;8.614;2023-05-29T17:14:34;28.29;43.55
77056;SHT30;67471;44.918;8.614;2023-05-29T17:17:37;28.37;43.43
77056;SHT30;67471;44.918;8.614;2023-05-29T17:20:42;28.42;43.45
77056;SHT30;67471;44.918;8.614;2023-05-29T17:23:45;28.32;43.64
77056;SHT30;67471;44.918;8.614;2023-05-29T17:26:49;28.30;43.64
77056;SHT30;67471;44.918;8.614;2023-05-29T17:29:53;28.29;43.61
77056;SHT30;67471;44.918;8.614;2023-05-29T17:32:57;28.24;43.51
77056;SHT30;67471;44.918;8.614;2023-05-29T17:36:00;28.23;43.60
77056;SHT30;67471;44.918;8.614;2023-05-29T17:39:04;28.23;43.53
77056;SHT30;67471;44.918;8.614;2023-05-29T17:42:08;28.14;43.89
77056;SHT30;67471;44.918;8.614;2023-05-29T17:45:12;28.10;44.12
77056;SHT30;67471;44.918;8.614;2023-05-29T17:48:16;27.89;45.05
77056;SHT30;67471;44.918;8.614;2023-05-29T17:51:20;27.89;45.54
77056;SHT30;67471;44.918;8.614;2023-05-29T17:54:25;27.68;46.20
77056;SHT30;67471;44.918;8.614;2023-05-29T17:57:30;27.74;46.49
77056;SHT30;67471;44.918;8.614;2023-05-29T18:00:37;27.69;46.57
77056;SHT30;67471;44.918;8.614;2023-05-29T18:03:41;27.57;47.03
77056;SHT30;67471;44.918;8.614;2023-05-29T18:06:44;27.62;47.18
77056;SHT30;67471;44.918;8.614;2023-05-29T18:09:48;27.51;47.56
77056;SHT30;67471;44.918;8.614;2023-05-29T18:12:52;27.48;47.45
77056;SHT30;67471;44.918;8.614;2023-05-29T18:15:56;27.47;47.63
77056;SHT30;67471;44.918;8.614;2023-05-29T18:18:59;27.38;47.83
77056;SHT30;67471;44.918;8.614;2023-05-29T18:22:03;27.24;48.17
77056;SHT30;67471;44.918;8.614;2023-05-29T18:25:08;27.24;48.13
77056;SHT30;67471;44.918;8.614;2023-05-29T18:28:12;27.11;48.49
77056;SHT30;67471;44.918;8.614;2023-05-29T18:31:16;26.96;48.91
77056;SHT30;67471;44.918;8.614;2023-05-29T18:34:21;26.90;49.32
77056;SHT30;67471;44.918;8.614;2023-05-29T18:37:25;26.87;49.43
77056;SHT30;67471;44.918;8.614;2023-05-29T18:40:29;26.90;49.52
77056;SHT30;67471;44.918;8.614;2023-05-29T18:43:33;26.76;49.98
77056;SHT30;67471;44.918;8.614;2023-05-29T18:46:37;26.60;50.89
77056;SHT30;67471;44.918;8.614;2023-05-29T18:49:42;26.57;51.12
77056;SHT30;67471;44.918;8.614;2023-05-29T18:52:45;26.41;51.73
77056;SHT30;67471;44.918;8.614;2023-05-29T18:55:49;26.39;52.02
77056;SHT30;67471;44.918;8.614;2023-05-29T18:58:54;26.39;52.15
77056;SHT30;67471;44.918;8.614;2023-05-29T19:01:58;26.15;52.74
77056;SHT30;67471;44.918;8.614;2023-05-29T19:05:02;26.21;52.66
77056;SHT30;67471;44.918;8.614;2023-05-29T19:08:05;26.06;52.91
77056;SHT30;67471;44.918;8.614;2023-05-29T19:11:13;25.94;53.31
77056;SHT30;67471;44.918;8.614;2023-05-29T19:14:18;26.08;52.96
77056;SHT30;67471;44.918;8.614;2023-05-29T19:17:22;25.97;53.27
77056;SHT30;67471;44.918;8.614;2023-05-29T19:20:26;25.83;53.59
77056;SHT30;67471;44.918;8.614;2023-05-29T19:23:30;25.83;53.64
77056;SHT30;67471;44.918;8.614;2023-05-29T19:26:34;25.83;53.87
77056;SHT30;67471;44.918;8.614;2023-05-29T19:29:39;25.83;53.95
77056;SHT30;67471;44.918;8.614;2023-05-29T19:32:45;25.53;54.64
77056;SHT30;67471;44.918;8.614;2023-05-29T19:35:49;25.54;54.50
77056;SHT30;67471;44.918;8.614;2023-05-29T19:38:53;25.40;54.71
77056;SHT30;67471;44.918;8.614;2023-05-29T19:41:58;25.53;54.53